sensor_id;sensor_type;location;lat;lon;timestamp;temperature;humidity
65046;DHT22;54657;52.022;5.534;2023-03-13T00:01:48;10.60;89.60
65046;DHT22;54657;52.022;5.534;2023-03-13T00:04:13;10.60;89.80
65046;DHT22;54657;52.022;5.534;2023-03-13T00:06:39;10.50;90.10
65046;DHT22;54657;52.022;5.534;2023-03-13T00:09:08;10.50;90.10
65046;DHT22;54657;52.022;5.534;2023-03-13T00:11:34;10.50;90.00
65046;DHT22;54657;52.022;5.534;2023-03-13T00:14:01;10.50;90.10
65046;DHT22;54657;52.022;5.534;2023-03-13T00:16:28;10.50;90.00
65046;DHT22;54657;52.022;5.534;2023-03-13T00:18:55;10.60;89.90
65046;DHT22;54657;52.022;5.534;2023-03-13T00:21:22;10.60;89.60
65046;DHT22;54657;52.022;5.534;2023-03-13T00:23:49;10.50;90.50
65046;DHT22;54657;52.022;5.534;2023-03-13T00:26:17;10.50;90.40
65046;DHT22;54657;52.022;5.534;2023-03-13T00:28:43;10.50;90.60
65046;DHT22;54657;52.022;5.534;2023-03-13T00:33:40;10.50;90.80
65046;DHT22;54657;52.022;5.534;2023-03-13T00:36:08;10.50;90.90
65046;DHT22;54657;52.022;5.534;2023-03-13T00:38:35;10.50;91.30
65046;DHT22;54657;52.022;5.534;2023-03-13T00:41:06;10.40;91.40
65046;DHT22;54657;52.022;5.534;2023-03-13T00:43:32;10.40;91.60
65046;DHT22;54657;52.022;5.534;2023-03-13T00:45:58;10.40;91.20
65046;DHT22;54657;52.022;5.534;2023-03-13T00:48:23;10.40;91.30
65046;DHT22;54657;52.022;5.534;2023-03-13T00:50:49;10.40;91.80
65046;DHT22;54657;52.022;5.534;2023-03-13T00:53:15;10.40;91.50
65046;DHT22;54657;52.022;5.534;2023-03-13T00:56:11;10.40;91.50
65046;DHT22;54657;52.022;5.534;2023-03-13T00:58:38;10.40;92.60
65046;DHT22;54657;52.022;5.534;2023-03-13T01:01:23;10.40;91.70
65046;DHT22;54657;52.022;5.534;2023-03-13T01:03:54;10.40;91.90
65046;DHT22;54657;52.022;5.534;2023-03-13T01:06:23;10.40;92.00
65046;DHT22;54657;52.022;5.534;2023-03-13T01:08:49;10.40;92.50
65046;DHT22;54657;52.022;5.534;2023-03-13T01:11:18;10.40;92.20
65046;DHT22;54657;52.022;5.534;2023-03-13T01:13:45;10.40;91.80
65046;DHT22;54657;52.022;5.534;2023-03-13T01:16:16;10.40;92.20
65046;DHT22;54657;52.022;5.534;2023-03-13T01:18:45;10.50;92.20
65046;DHT22;54657;52.022;5.534;2023-03-13T01:21:12;10.50;91.60
65046;DHT22;54657;52.022;5.534;2023-03-13T01:23:38;10.50;91.90
65046;DHT22;54657;52.022;5.534;2023-03-13T01:26:05;10.50;92.10
65046;DHT22;54657;52.022;5.534;2023-03-13T01:28:30;10.50;92.20
65046;DHT22;54657;52.022;5.534;2023-03-13T01:30:56;10.50;92.50
65046;DHT22;54657;52.022;5.534;2023-03-13T01:33:22;10.50;92.30
65046;DHT22;54657;52.022;5.534;2023-03-13T01:35:47;10.40;92.50
65046;DHT22;54657;52.022;5.534;2023-03-13T01:38:13;10.50;92.60
65046;DHT22;54657;52.022;5.534;2023-03-13T01:43:17;10.40;93.40
65046;DHT22;54657;52.022;5.534;2023-03-13T01:46:03;10.50;95.40
65046;DHT22;54657;52.022;5.534;2023-03-13T01:51:18;10.50;94.10
65046;DHT22;54657;52.022;5.534;2023-03-13T01:53:55;10.50;93.90
65046;DHT22;54657;52.022;5.534;2023-03-13T01:56:27;10.50;94.20
65046;DHT22;54657;52.022;5.534;2023-03-13T01:58:54;10.50;94.40
65046;DHT22;54657;52.022;5.534;2023-03-13T02:01:21;10.50;98.50
65046;DHT22;54657;52.022;5.534;2023-03-13T02:03:48;10.50;93.80
65046;DHT22;54657;52.022;5.534;2023-03-13T02:06:14;10.60;93.80
65046;DHT22;54657;52.022;5.534;2023-03-13T02:08:45;10.50;94.00
65046;DHT22;54657;52.022;5.534;2023-03-13T02:13:49;10.70;94.50
65046;DHT22;54657;52.022;5.534;2023-03-13T02:16:16;10.70;93.70
65046;DHT22;54657;52.022;5.534;2023-03-13T02:18:43;10.70;94.60
65046;DHT22;54657;52.022;5.534;2023-03-13T02:24:06;10.70;94.70
65046;DHT22;54657;52.022;5.534;2023-03-13T02:26:33;10.70;96.70
65046;DHT22;54657;52.022;5.534;2023-03-13T02:28:59;10.80;94.40
65046;DHT22;54657;52.022;5.534;2023-03-13T02:31:25;10.80;94.20
65046;DHT22;54657;52.022;5.534;2023-03-13T02:33:51;10.80;94.50
65046;DHT22;54657;52.022;5.534;2023-03-13T02:36:17;10.90;94.60
65046;DHT22;54657;52.022;5.534;2023-03-13T02:38:52;10.80;95.20
65046;DHT22;54657;52.022;5.534;2023-03-13T02:41:20;10.90;96.50
65046;DHT22;54657;52.022;5.534;2023-03-13T02:43:47;10.90;95.10
65046;DHT22;54657;52.022;5.534;2023-03-13T02:46:16;10.90;95.00
65046;DHT22;54657;52.022;5.534;2023-03-13T02:48:45;10.90;95.10
65046;DHT22;54657;52.022;5.534;2023-03-13T02:51:21;10.90;95.40
65046;DHT22;54657;52.022;5.534;2023-03-13T02:53:49;11.00;96.70
65046;DHT22;54657;52.022;5.534;2023-03-13T02:56:19;11.00;95.00
65046;DHT22;54657;52.022;5.534;2023-03-13T02:58:45;11.10;95.20
65046;DHT22;54657;52.022;5.534;2023-03-13T03:01:11;11.10;95.20
65046;DHT22;54657;52.022;5.534;2023-03-13T03:03:37;11.10;95.10
65046;DHT22;54657;52.022;5.534;2023-03-13T03:06:04;11.20;94.70
65046;DHT22;54657;52.022;5.534;2023-03-13T03:08:29;11.20;95.20
65046;DHT22;54657;52.022;5.534;2023-03-13T03:10:55;11.30;94.50
65046;DHT22;54657;52.022;5.534;2023-03-13T03:13:21;11.30;94.50
65046;DHT22;54657;52.022;5.534;2023-03-13T03:15:46;11.40;94.50
65046;DHT22;54657;52.022;5.534;2023-03-13T03:18:12;11.40;94.50
65046;DHT22;54657;52.022;5.534;2023-03-13T03:20:37;11.50;95.20
65046;DHT22;54657;52.022;5.534;2023-03-13T03:23:03;11.50;95.40
65046;DHT22;54657;52.022;5.534;2023-03-13T03:25:28;11.60;96.20
65046;DHT22;54657;52.022;5.534;2023-03-13T03:27:54;11.60;95.40
65046;DHT22;54657;52.022;5.534;2023-03-13T03:30:19;11.70;95.10
65046;DHT22;54657;52.022;5.534;2023-03-13T03:32:45;11.70;95.40
65046;DHT22;54657;52.022;5.534;2023-03-13T03:35:11;11.70;95.30
65046;DHT22;54657;52.022;5.534;2023-03-13T03:37:36;11.80;95.70
65046;DHT22;54657;52.022;5.534;2023-03-13T03:40:02;11.80;95.10
65046;DHT22;54657;52.022;5.534;2023-03-13T03:42:30;11.90;95.80
65046;DHT22;54657;52.022;5.534;2023-03-13T03:44:55;11.90;95.10
65046;DHT22;54657;52.022;5.534;2023-03-13T03:47:21;12.00;94.80
65046;DHT22;54657;52.022;5.534;2023-03-13T03:49:46;12.00;94.90
65046;DHT22;54657;52.022;5.534;2023-03-13T03:52:12;12.00;95.50
65046;DHT22;54657;52.022;5.534;2023-03-13T03:54:38;12.00;95.60
65046;DHT22;54657;52.022;5.534;2023-03-13T03:57:03;12.10;95.00
65046;DHT22;54657;52.022;5.534;2023-03-13T03:59:29;12.10;95.30
65046;DHT22;54657;52.022;5.534;2023-03-13T04:01:54;12.10;95.80
65046;DHT22;54657;52.022;5.534;2023-03-13T04:04:20;12.10;95.80
65046;DHT22;54657;52.022;5.534;2023-03-13T04:06:45;12.20;95.20
65046;DHT22;54657;52.022;5.534;2023-03-13T04:09:11;12.20;95.90
65046;DHT22;54657;52.022;5.534;2023-03-13T04:11:37;12.20;96.10
65046;DHT22;54657;52.022;5.534;2023-03-13T04:14:02;12.20;95.70
65046;DHT22;54657;52.022;5.534;2023-03-13T04:16:28;12.20;95.80
65046;DHT22;54657;52.022;5.534;2023-03-13T04:18:53;12.30;95.60
65046;DHT22;54657;52.022;5.534;2023-03-13T04:21:19;12.30;95.50
65046;DHT22;54657;52.022;5.534;2023-03-13T04:23:45;12.30;96.30
65046;DHT22;54657;52.022;5.534;2023-03-13T04:26:10;12.30;95.80
65046;DHT22;54657;52.022;5.534;2023-03-13T04:28:36;12.30;96.30
65046;DHT22;54657;52.022;5.534;2023-03-13T04:31:01;12.40;95.80
65046;DHT22;54657;52.022;5.534;2023-03-13T04:33:27;12.40;95.30
65046;DHT22;54657;52.022;5.534;2023-03-13T04:35:52;12.40;95.70
65046;DHT22;54657;52.022;5.534;2023-03-13T04:38:18;12.40;96.00
65046;DHT22;54657;52.022;5.534;2023-03-13T04:40:45;12.50;95.80
65046;DHT22;54657;52.022;5.534;2023-03-13T04:43:10;12.50;96.10
65046;DHT22;54657;52.022;5.534;2023-03-13T04:45:36;12.50;95.60
65046;DHT22;54657;52.022;5.534;2023-03-13T04:48:01;12.50;96.30
65046;DHT22;54657;52.022;5.534;2023-03-13T04:50:27;12.50;96.00
65046;DHT22;54657;52.022;5.534;2023-03-13T04:52:52;12.60;96.10
65046;DHT22;54657;52.022;5.534;2023-03-13T04:55:18;12.60;95.60
65046;DHT22;54657;52.022;5.534;2023-03-13T04:57:43;12.60;96.00
65046;DHT22;54657;52.022;5.534;2023-03-13T05:00:09;12.60;95.70
65046;DHT22;54657;52.022;5.534;2023-03-13T05:02:36;12.70;95.60
65046;DHT22;54657;52.022;5.534;2023-03-13T05:05:01;12.70;95.30
65046;DHT22;54657;52.022;5.534;2023-03-13T05:07:27;12.70;95.90
65046;DHT22;54657;52.022;5.534;2023-03-13T05:09:52;12.70;95.90
65046;DHT22;54657;52.022;5.534;2023-03-13T05:12:18;12.70;95.90
65046;DHT22;54657;52.022;5.534;2023-03-13T05:14:43;12.70;95.70
65046;DHT22;54657;52.022;5.534;2023-03-13T05:17:09;12.70;95.70
65046;DHT22;54657;52.022;5.534;2023-03-13T05:19:37;12.80;95.30
65046;DHT22;54657;52.022;5.534;2023-03-13T05:22:02;12.80;95.40
65046;DHT22;54657;52.022;5.534;2023-03-13T05:24:28;12.80;95.20
65046;DHT22;54657;52.022;5.534;2023-03-13T05:26:53;12.90;95.20
65046;DHT22;54657;52.022;5.534;2023-03-13T05:29:19;12.90;95.00
65046;DHT22;54657;52.022;5.534;2023-03-13T05:31:45;12.90;95.20
65046;DHT22;54657;52.022;5.534;2023-03-13T05:34:10;13.00;94.80
65046;DHT22;54657;52.022;5.534;2023-03-13T05:36:36;13.00;94.90
65046;DHT22;54657;52.022;5.534;2023-03-13T05:39:01;13.10;94.50
65046;DHT22;54657;52.022;5.534;2023-03-13T05:41:27;13.10;94.60
65046;DHT22;54657;52.022;5.534;2023-03-13T05:43:53;13.10;94.30
65046;DHT22;54657;52.022;5.534;2023-03-13T05:46:18;13.10;94.30
65046;DHT22;54657;52.022;5.534;2023-03-13T05:48:44;13.20;94.20
65046;DHT22;54657;52.022;5.534;2023-03-13T05:51:11;13.20;94.20
65046;DHT22;54657;52.022;5.534;2023-03-13T05:53:36;13.20;94.20
65046;DHT22;54657;52.022;5.534;2023-03-13T05:56:02;13.20;94.00
65046;DHT22;54657;52.022;5.534;2023-03-13T05:58:28;13.20;94.00
65046;DHT22;54657;52.022;5.534;2023-03-13T06:00:53;13.30;93.70
65046;DHT22;54657;52.022;5.534;2023-03-13T06:03:19;13.30;93.70
65046;DHT22;54657;52.022;5.534;2023-03-13T06:05:45;13.30;93.80
65046;DHT22;54657;52.022;5.534;2023-03-13T06:08:10;13.30;93.70
65046;DHT22;54657;52.022;5.534;2023-03-13T06:10:36;13.30;93.60
65046;DHT22;54657;52.022;5.534;2023-03-13T06:13:01;13.40;93.70
65046;DHT22;54657;52.022;5.534;2023-03-13T06:15:27;13.30;93.60
65046;DHT22;54657;52.022;5.534;2023-03-13T06:17:52;13.40;93.70
65046;DHT22;54657;52.022;5.534;2023-03-13T06:20:18;13.40;93.60
65046;DHT22;54657;52.022;5.534;2023-03-13T06:22:44;13.40;93.70
65046;DHT22;54657;52.022;5.534;2023-03-13T06:25:10;13.30;93.70
65046;DHT22;54657;52.022;5.534;2023-03-13T06:27:39;13.40;93.70
65046;DHT22;54657;52.022;5.534;2023-03-13T06:30:05;13.40;93.60
65046;DHT22;54657;52.022;5.534;2023-03-13T06:32:31;13.40;93.60
65046;DHT22;54657;52.022;5.534;2023-03-13T06:34:56;13.40;93.50
65046;DHT22;54657;52.022;5.534;2023-03-13T06:37:22;13.40;93.30
65046;DHT22;54657;52.022;5.534;2023-03-13T06:39:47;13.40;93.30
65046;DHT22;54657;52.022;5.534;2023-03-13T06:42:13;13.50;93.30
65046;DHT22;54657;52.022;5.534;2023-03-13T06:44:38;13.50;93.20
65046;DHT22;54657;52.022;5.534;2023-03-13T06:47:06;13.50;93.10
65046;DHT22;54657;52.022;5.534;2023-03-13T06:49:31;13.50;93.00
65046;DHT22;54657;52.022;5.534;2023-03-13T06:51:57;13.50;92.90
65046;DHT22;54657;52.022;5.534;2023-03-13T06:54:23;13.50;92.80
65046;DHT22;54657;52.022;5.534;2023-03-13T06:56:49;13.50;92.90
65046;DHT22;54657;52.022;5.534;2023-03-13T06:59:15;13.60;92.90
65046;DHT22;54657;52.022;5.534;2023-03-13T07:01:40;13.60;92.70
65046;DHT22;54657;52.022;5.534;2023-03-13T07:04:07;13.60;92.70
65046;DHT22;54657;52.022;5.534;2023-03-13T07:06:34;13.60;92.70
65046;DHT22;54657;52.022;5.534;2023-03-13T07:08:59;13.60;92.70
65046;DHT22;54657;52.022;5.534;2023-03-13T07:11:25;13.70;92.50
65046;DHT22;54657;52.022;5.534;2023-03-13T07:13:53;13.70;92.60
65046;DHT22;54657;52.022;5.534;2023-03-13T07:16:19;13.70;92.60
65046;DHT22;54657;52.022;5.534;2023-03-13T07:18:45;13.70;92.60
65046;DHT22;54657;52.022;5.534;2023-03-13T07:21:11;13.70;92.50
65046;DHT22;54657;52.022;5.534;2023-03-13T07:23:37;13.70;92.40
65046;DHT22;54657;52.022;5.534;2023-03-13T07:26:10;13.70;92.50
65046;DHT22;54657;52.022;5.534;2023-03-13T07:28:36;13.70;92.60
65046;DHT22;54657;52.022;5.534;2023-03-13T07:31:13;13.70;92.70
65046;DHT22;54657;52.022;5.534;2023-03-13T07:33:39;13.70;92.80
65046;DHT22;54657;52.022;5.534;2023-03-13T07:36:05;13.60;92.90
65046;DHT22;54657;52.022;5.534;2023-03-13T07:38:31;13.60;93.00
65046;DHT22;54657;52.022;5.534;2023-03-13T07:40:57;13.60;93.30
65046;DHT22;54657;52.022;5.534;2023-03-13T07:43:23;13.60;93.30
65046;DHT22;54657;52.022;5.534;2023-03-13T07:45:57;13.60;93.40
65046;DHT22;54657;52.022;5.534;2023-03-13T07:48:27;13.60;93.70
65046;DHT22;54657;52.022;5.534;2023-03-13T07:50:54;13.50;93.60
65046;DHT22;54657;52.022;5.534;2023-03-13T07:53:20;13.50;93.90
65046;DHT22;54657;52.022;5.534;2023-03-13T07:56:00;13.50;93.80
65046;DHT22;54657;52.022;5.534;2023-03-13T07:58:28;13.50;94.10
65046;DHT22;54657;52.022;5.534;2023-03-13T08:00:54;13.50;93.90
65046;DHT22;54657;52.022;5.534;2023-03-13T08:03:20;13.40;93.90
65046;DHT22;54657;52.022;5.534;2023-03-13T08:05:46;13.40;93.90
65046;DHT22;54657;52.022;5.534;2023-03-13T08:08:12;13.40;94.00
65046;DHT22;54657;52.022;5.534;2023-03-13T08:10:38;13.40;93.90
65046;DHT22;54657;52.022;5.534;2023-03-13T08:13:03;13.50;93.90
65046;DHT22;54657;52.022;5.534;2023-03-13T08:15:29;13.50;93.90
65046;DHT22;54657;52.022;5.534;2023-03-13T08:17:55;13.60;93.70
65046;DHT22;54657;52.022;5.534;2023-03-13T08:20:21;13.60;93.70
65046;DHT22;54657;52.022;5.534;2023-03-13T08:22:47;13.70;93.40
65046;DHT22;54657;52.022;5.534;2023-03-13T08:25:13;13.70;93.50
65046;DHT22;54657;52.022;5.534;2023-03-13T08:27:39;13.70;93.50
65046;DHT22;54657;52.022;5.534;2023-03-13T08:30:05;13.70;93.60
65046;DHT22;54657;52.022;5.534;2023-03-13T08:32:35;13.70;93.50
65046;DHT22;54657;52.022;5.534;2023-03-13T08:35:01;13.70;93.60
65046;DHT22;54657;52.022;5.534;2023-03-13T08:37:27;13.70;93.30
65046;DHT22;54657;52.022;5.534;2023-03-13T08:39:52;13.80;93.20
65046;DHT22;54657;52.022;5.534;2023-03-13T08:42:21;13.80;93.30
65046;DHT22;54657;52.022;5.534;2023-03-13T08:44:47;13.90;93.30
65046;DHT22;54657;52.022;5.534;2023-03-13T08:47:13;13.80;93.20
65046;DHT22;54657;52.022;5.534;2023-03-13T08:49:38;13.80;93.50
65046;DHT22;54657;52.022;5.534;2023-03-13T08:52:05;13.80;93.30
65046;DHT22;54657;52.022;5.534;2023-03-13T08:54:31;13.90;93.20
65046;DHT22;54657;52.022;5.534;2023-03-13T08:56:57;13.90;93.10
65046;DHT22;54657;52.022;5.534;2023-03-13T08:59:24;14.00;93.00
65046;DHT22;54657;52.022;5.534;2023-03-13T09:01:50;14.00;92.60
65046;DHT22;54657;52.022;5.534;2023-03-13T09:04:15;14.10;92.40
65046;DHT22;54657;52.022;5.534;2023-03-13T09:06:41;14.10;92.20
65046;DHT22;54657;52.022;5.534;2023-03-13T09:09:07;14.20;92.00
65046;DHT22;54657;52.022;5.534;2023-03-13T09:11:34;14.20;91.70
65046;DHT22;54657;52.022;5.534;2023-03-13T09:14:00;14.30;91.60
65046;DHT22;54657;52.022;5.534;2023-03-13T09:16:28;14.30;91.50
65046;DHT22;54657;52.022;5.534;2023-03-13T09:18:55;14.30;91.20
65046;DHT22;54657;52.022;5.534;2023-03-13T09:21:32;14.40;91.00
65046;DHT22;54657;52.022;5.534;2023-03-13T09:23:58;14.50;90.20
65046;DHT22;54657;52.022;5.534;2023-03-13T09:26:25;14.50;90.60
65046;DHT22;54657;52.022;5.534;2023-03-13T09:28:51;14.50;90.40
65046;DHT22;54657;52.022;5.534;2023-03-13T09:31:20;14.60;90.50
65046;DHT22;54657;52.022;5.534;2023-03-13T09:33:48;14.70;90.30
65046;DHT22;54657;52.022;5.534;2023-03-13T09:36:14;14.80;89.60
65046;DHT22;54657;52.022;5.534;2023-03-13T09:38:41;14.90;89.30
65046;DHT22;54657;52.022;5.534;2023-03-13T09:46:24;14.90;88.20
65046;DHT22;54657;52.022;5.534;2023-03-13T09:48:55;15.00;88.30
65046;DHT22;54657;52.022;5.534;2023-03-13T09:51:37;15.00;88.50
65046;DHT22;54657;52.022;5.534;2023-03-13T09:54:25;15.00;86.80
65046;DHT22;54657;52.022;5.534;2023-03-13T09:59:54;15.20;88.40
65046;DHT22;54657;52.022;5.534;2023-03-13T10:02:30;15.20;87.00
65046;DHT22;54657;52.022;5.534;2023-03-13T10:05:20;15.30;85.80
65046;DHT22;54657;52.022;5.534;2023-03-13T10:07:46;15.30;84.30
65046;DHT22;54657;52.022;5.534;2023-03-13T10:10:18;15.40;87.90
65046;DHT22;54657;52.022;5.534;2023-03-13T10:12:47;15.40;87.10
65046;DHT22;54657;52.022;5.534;2023-03-13T10:15:44;15.40;87.40
65046;DHT22;54657;52.022;5.534;2023-03-13T10:18:19;15.40;84.20
65046;DHT22;54657;52.022;5.534;2023-03-13T10:20:51;15.40;87.50
65046;DHT22;54657;52.022;5.534;2023-03-13T10:23:33;15.50;87.10
65046;DHT22;54657;52.022;5.534;2023-03-13T10:25:59;15.50;86.40
65046;DHT22;54657;52.022;5.534;2023-03-13T10:28:25;15.60;86.90
65046;DHT22;54657;52.022;5.534;2023-03-13T10:30:57;15.60;86.70
65046;DHT22;54657;52.022;5.534;2023-03-13T10:33:27;15.60;86.20
65046;DHT22;54657;52.022;5.534;2023-03-13T10:36:08;15.70;86.50
65046;DHT22;54657;52.022;5.534;2023-03-13T10:38:46;15.80;82.60
65046;DHT22;54657;52.022;5.534;2023-03-13T10:41:33;15.90;82.90
65046;DHT22;54657;52.022;5.534;2023-03-13T10:44:05;16.10;81.00
65046;DHT22;54657;52.022;5.534;2023-03-13T10:46:34;16.10;80.80
65046;DHT22;54657;52.022;5.534;2023-03-13T10:49:22;16.10;81.90
65046;DHT22;54657;52.022;5.534;2023-03-13T10:51:57;16.20;79.80
65046;DHT22;54657;52.022;5.534;2023-03-13T10:56:51;16.40;77.70
65046;DHT22;54657;52.022;5.534;2023-03-13T10:59:25;16.40;77.20
65046;DHT22;54657;52.022;5.534;2023-03-13T11:01:52;16.50;78.50
65046;DHT22;54657;52.022;5.534;2023-03-13T11:04:30;16.50;78.10
65046;DHT22;54657;52.022;5.534;2023-03-13T11:07:13;16.60;73.50
65046;DHT22;54657;52.022;5.534;2023-03-13T11:09:40;16.60;71.50
65046;DHT22;54657;52.022;5.534;2023-03-13T11:12:11;16.60;77.20
65046;DHT22;54657;52.022;5.534;2023-03-13T11:14:38;16.70;76.60
65046;DHT22;54657;52.022;5.534;2023-03-13T11:20:04;16.60;73.30
65046;DHT22;54657;52.022;5.534;2023-03-13T11:22:47;16.60;73.20
65046;DHT22;54657;52.022;5.534;2023-03-13T11:30:57;16.80;77.70
65046;DHT22;54657;52.022;5.534;2023-03-13T11:33:35;16.70;74.60
65046;DHT22;54657;52.022;5.534;2023-03-13T11:38:34;16.70;78.00
65046;DHT22;54657;52.022;5.534;2023-03-13T11:49:08;16.70;78.90
65046;DHT22;54657;52.022;5.534;2023-03-13T11:54:43;16.70;76.10
65046;DHT22;54657;52.022;5.534;2023-03-13T11:57:27;16.70;79.10
65046;DHT22;54657;52.022;5.534;2023-03-13T12:00:02;16.70;75.40
65046;DHT22;54657;52.022;5.534;2023-03-13T12:02:37;16.70;76.70
65046;DHT22;54657;52.022;5.534;2023-03-13T12:05:08;16.70;78.60
65046;DHT22;54657;52.022;5.534;2023-03-13T12:10:29;16.80;77.50
65046;DHT22;54657;52.022;5.534;2023-03-13T12:13:06;16.80;75.20
65046;DHT22;54657;52.022;5.534;2023-03-13T12:15:54;16.90;77.00
65046;DHT22;54657;52.022;5.534;2023-03-13T12:18:39;17.00;69.60
65046;DHT22;54657;52.022;5.534;2023-03-13T12:21:27;17.00;72.80
65046;DHT22;54657;52.022;5.534;2023-03-13T12:26:50;17.20;72.20
65046;DHT22;54657;52.022;5.534;2023-03-13T12:32:42;17.10;70.30
65046;DHT22;54657;52.022;5.534;2023-03-13T12:35:29;17.00;69.70
65046;DHT22;54657;52.022;5.534;2023-03-13T12:40:52;16.90;71.40
65046;DHT22;54657;52.022;5.534;2023-03-13T12:43:33;17.00;72.10
65046;DHT22;54657;52.022;5.534;2023-03-13T12:57:13;17.20;68.30
65046;DHT22;54657;52.022;5.534;2023-03-13T12:59:51;17.20;68.20
65046;DHT22;54657;52.022;5.534;2023-03-13T13:02:35;17.20;68.20
65046;DHT22;54657;52.022;5.534;2023-03-13T13:05:04;17.20;70.10
65046;DHT22;54657;52.022;5.534;2023-03-13T13:07:36;17.30;70.40
65046;DHT22;54657;52.022;5.534;2023-03-13T13:18:00;17.30;70.40
65046;DHT22;54657;52.022;5.534;2023-03-13T13:20:33;17.40;68.90
65046;DHT22;54657;52.022;5.534;2023-03-13T13:23:34;17.50;70.40
65046;DHT22;54657;52.022;5.534;2023-03-13T13:36:55;17.50;68.80
65046;DHT22;54657;52.022;5.534;2023-03-13T13:39:45;17.60;68.70
65046;DHT22;54657;52.022;5.534;2023-03-13T13:47:45;17.60;66.30
65046;DHT22;54657;52.022;5.534;2023-03-13T13:50:28;17.60;68.90
65046;DHT22;54657;52.022;5.534;2023-03-13T13:53:33;17.60;66.30
65046;DHT22;54657;52.022;5.534;2023-03-13T13:59:37;17.50;65.20
65046;DHT22;54657;52.022;5.534;2023-03-13T14:01:44;17.50;68.10
65046;DHT22;54657;52.022;5.534;2023-03-13T14:04:26;17.40;68.50
65046;DHT22;54657;52.022;5.534;2023-03-13T14:07:02;17.40;65.60
65046;DHT22;54657;52.022;5.534;2023-03-13T14:09:49;17.30;67.60
65046;DHT22;54657;52.022;5.534;2023-03-13T14:12:34;17.20;63.90
65046;DHT22;54657;52.022;5.534;2023-03-13T14:15:13;17.30;65.60
65046;DHT22;54657;52.022;5.534;2023-03-13T14:17:48;17.30;67.40
65046;DHT22;54657;52.022;5.534;2023-03-13T14:23:00;17.20;66.20
65046;DHT22;54657;52.022;5.534;2023-03-13T14:25:28;17.20;66.90
65046;DHT22;54657;52.022;5.534;2023-03-13T14:28:05;17.20;67.90
65046;DHT22;54657;52.022;5.534;2023-03-13T14:30:33;17.20;68.10
65046;DHT22;54657;52.022;5.534;2023-03-13T14:32:58;17.30;66.90
65046;DHT22;54657;52.022;5.534;2023-03-13T14:35:24;17.20;67.80
65046;DHT22;54657;52.022;5.534;2023-03-13T14:37:51;17.20;67.80
65046;DHT22;54657;52.022;5.534;2023-03-13T14:40:18;17.10;67.30
65046;DHT22;54657;52.022;5.534;2023-03-13T14:43:13;17.10;68.60
65046;DHT22;54657;52.022;5.534;2023-03-13T14:45:35;17.10;67.70
65046;DHT22;54657;52.022;5.534;2023-03-13T14:48:22;17.10;68.20
65046;DHT22;54657;52.022;5.534;2023-03-13T14:50:56;17.20;66.30
65046;DHT22;54657;52.022;5.534;2023-03-13T14:53:27;17.10;67.60
65046;DHT22;54657;52.022;5.534;2023-03-13T14:56:13;17.10;66.80
65046;DHT22;54657;52.022;5.534;2023-03-13T14:58:39;17.10;65.90
65046;DHT22;54657;52.022;5.534;2023-03-13T15:01:33;17.10;68.00
65046;DHT22;54657;52.022;5.534;2023-03-13T15:03:58;17.10;67.50
65046;DHT22;54657;52.022;5.534;2023-03-13T15:06:25;17.00;67.30
65046;DHT22;54657;52.022;5.534;2023-03-13T15:09:16;17.00;67.20
65046;DHT22;54657;52.022;5.534;2023-03-13T15:11:59;17.00;64.70
65046;DHT22;54657;52.022;5.534;2023-03-13T15:14:35;16.90;65.00
65046;DHT22;54657;52.022;5.534;2023-03-13T15:17:01;16.90;64.30
65046;DHT22;54657;52.022;5.534;2023-03-13T15:19:30;16.90;68.10
65046;DHT22;54657;52.022;5.534;2023-03-13T15:21:56;16.90;67.10
65046;DHT22;54657;52.022;5.534;2023-03-13T15:24:22;16.90;67.60
65046;DHT22;54657;52.022;5.534;2023-03-13T15:26:47;16.90;67.50
65046;DHT22;54657;52.022;5.534;2023-03-13T15:29:13;16.80;67.40
65046;DHT22;54657;52.022;5.534;2023-03-13T15:31:39;16.70;67.60
65046;DHT22;54657;52.022;5.534;2023-03-13T15:34:08;16.70;67.40
65046;DHT22;54657;52.022;5.534;2023-03-13T15:36:34;16.70;67.70
65046;DHT22;54657;52.022;5.534;2023-03-13T15:39:00;16.60;67.40
65046;DHT22;54657;52.022;5.534;2023-03-13T15:41:29;16.70;67.90
65046;DHT22;54657;52.022;5.534;2023-03-13T15:43:58;16.60;67.20
65046;DHT22;54657;52.022;5.534;2023-03-13T15:46:26;16.70;68.00
65046;DHT22;54657;52.022;5.534;2023-03-13T15:48:52;16.70;67.60
65046;DHT22;54657;52.022;5.534;2023-03-13T15:51:18;16.60;67.90
65046;DHT22;54657;52.022;5.534;2023-03-13T15:53:45;16.60;67.70
65046;DHT22;54657;52.022;5.534;2023-03-13T15:56:19;16.60;68.00
65046;DHT22;54657;52.022;5.534;2023-03-13T15:58:46;16.60;66.50
65046;DHT22;54657;52.022;5.534;2023-03-13T16:01:14;16.60;67.50
65046;DHT22;54657;52.022;5.534;2023-03-13T16:03:40;16.60;68.10
65046;DHT22;54657;52.022;5.534;2023-03-13T16:06:19;16.50;67.80
65046;DHT22;54657;52.022;5.534;2023-03-13T16:08:52;16.50;67.40
65046;DHT22;54657;52.022;5.534;2023-03-13T16:11:18;16.40;68.40
65046;DHT22;54657;52.022;5.534;2023-03-13T16:13:43;16.40;68.40
65046;DHT22;54657;52.022;5.534;2023-03-13T16:16:20;16.40;68.40
65046;DHT22;54657;52.022;5.534;2023-03-13T16:18:52;16.30;68.10
65046;DHT22;54657;52.022;5.534;2023-03-13T16:21:21;16.40;67.90
65046;DHT22;54657;52.022;5.534;2023-03-13T16:23:47;16.30;68.10
65046;DHT22;54657;52.022;5.534;2023-03-13T16:26:19;16.20;68.60
65046;DHT22;54657;52.022;5.534;2023-03-13T16:28:45;16.20;68.10
65046;DHT22;54657;52.022;5.534;2023-03-13T16:31:20;16.10;68.80
65046;DHT22;54657;52.022;5.534;2023-03-13T16:33:46;16.10;67.80
65046;DHT22;54657;52.022;5.534;2023-03-13T16:36:17;16.00;68.00
65046;DHT22;54657;52.022;5.534;2023-03-13T16:38:44;16.00;68.40
65046;DHT22;54657;52.022;5.534;2023-03-13T16:41:13;16.00;68.60
65046;DHT22;54657;52.022;5.534;2023-03-13T16:43:47;15.90;68.20
65046;DHT22;54657;52.022;5.534;2023-03-13T16:46:18;15.90;68.40
65046;DHT22;54657;52.022;5.534;2023-03-13T16:48:45;15.90;68.30
65046;DHT22;54657;52.022;5.534;2023-03-13T16:51:15;15.80;68.50
65046;DHT22;54657;52.022;5.534;2023-03-13T16:53:42;15.70;68.00
65046;DHT22;54657;52.022;5.534;2023-03-13T17:09:51;15.50;67.70
65046;DHT22;54657;52.022;5.534;2023-03-13T17:18:47;15.30;68.70
65046;DHT22;54657;52.022;5.534;2023-03-13T17:21:16;15.30;69.50
65046;DHT22;54657;52.022;5.534;2023-03-13T17:23:43;15.30;69.40
65046;DHT22;54657;52.022;5.534;2023-03-13T17:26:14;15.20;69.40
65046;DHT22;54657;52.022;5.534;2023-03-13T17:28:41;15.20;69.30
65046;DHT22;54657;52.022;5.534;2023-03-13T17:31:09;15.20;69.40
65046;DHT22;54657;52.022;5.534;2023-03-13T17:33:35;15.10;69.60
65046;DHT22;54657;52.022;5.534;2023-03-13T17:36:00;15.20;69.70
65046;DHT22;54657;52.022;5.534;2023-03-13T17:38:26;15.10;69.70
65046;DHT22;54657;52.022;5.534;2023-03-13T17:40:51;15.10;69.80
65046;DHT22;54657;52.022;5.534;2023-03-13T17:43:18;15.10;69.90